createdAt,value
2018-12-29T00:00:56.310Z,6.40
2018-12-29T00:03:24.512Z,6.27
2018-12-29T00:05:51.899Z,6.33
2018-12-29T00:08:19.326Z,5.07
2018-12-29T00:10:46.827Z,5.20
2018-12-29T00:13:14.489Z,5.20
2018-12-29T00:15:41.925Z,4.63
2018-12-29T00:18:09.308Z,6.00
2018-12-29T00:20:36.722Z,6.60
2018-12-29T00:23:04.188Z,6.50
2018-12-29T00:25:33.267Z,6.20
2018-12-29T00:28:00.660Z,5.30
2018-12-29T00:30:28.139Z,5.43
2018-12-29T00:32:55.523Z,5.83
2018-12-29T00:35:22.925Z,6.73
2018-12-29T00:37:50.620Z,6.77
2018-12-29T00:40:18.006Z,6.93
2018-12-29T00:42:45.423Z,6.20
2018-12-29T00:45:13.316Z,5.10
2018-12-29T00:47:40.695Z,4.37
2018-12-29T00:50:08.091Z,5.40
2018-12-29T00:52:36.004Z,6.00
2018-12-29T00:55:03.427Z,4.40
2018-12-29T00:57:30.819Z,4.50
2018-12-29T00:59:58.344Z,3.87
2018-12-29T01:02:25.735Z,4.10
2018-12-29T01:04:53.111Z,5.50
2018-12-29T01:07:20.563Z,6.67
2018-12-29T01:09:48.084Z,7.77
2018-12-29T01:12:16.053Z,7.87
2018-12-29T01:14:43.905Z,9.20
2018-12-29T01:17:11.292Z,7.93
2018-12-29T01:19:38.683Z,7.53
2018-12-29T01:22:06.125Z,5.40
2018-12-29T01:24:33.502Z,5.37
2018-12-29T01:27:00.892Z,4.70
2018-12-29T01:29:28.458Z,5.40
2018-12-29T01:31:55.848Z,5.90
2018-12-29T01:34:23.239Z,5.07
2018-12-29T01:36:50.650Z,4.50
2018-12-29T01:39:18.038Z,6.80
2018-12-29T01:41:45.414Z,5.90
2018-12-29T01:44:13.025Z,5.30
2018-12-29T01:46:40.409Z,5.10
2018-12-29T01:49:07.831Z,5.27
2018-12-29T01:51:35.362Z,6.40
2018-12-29T01:54:02.764Z,5.47
2018-12-29T01:56:30.150Z,5.90
2018-12-29T01:58:57.829Z,4.93
2018-12-29T02:01:25.114Z,4.80
2018-12-29T02:03:52.505Z,4.60
2018-12-29T02:06:19.937Z,5.87
2018-12-29T02:08:47.326Z,4.73
2018-12-29T02:11:14.990Z,6.40
2018-12-29T02:13:42.975Z,6.70
2018-12-29T02:16:10.378Z,5.27
2018-12-29T02:18:37.765Z,5.37
2018-12-29T02:21:05.287Z,4.67
2018-12-29T02:23:32.671Z,5.00
2018-12-29T02:26:00.066Z,5.00
2018-12-29T02:28:27.854Z,5.97
2018-12-29T02:30:55.254Z,7.60
2018-12-29T02:33:22.625Z,4.97
2018-12-29T02:35:50.466Z,4.70
2018-12-29T02:38:17.830Z,6.30
2018-12-29T02:40:46.594Z,5.13
2018-12-29T02:43:14.542Z,4.60
2018-12-29T02:45:41.935Z,5.90
2018-12-29T02:48:09.318Z,5.27
2018-12-29T02:50:37.017Z,4.77
2018-12-29T02:53:04.401Z,4.50
2018-12-29T02:55:31.807Z,5.53
2018-12-29T02:57:59.287Z,6.60
2018-12-29T03:00:26.673Z,6.57
2018-12-29T03:02:54.080Z,5.80
2018-12-29T03:05:21.516Z,4.80
2018-12-29T03:07:48.911Z,5.30
2018-12-29T03:10:16.319Z,4.13
2018-12-29T03:12:43.802Z,5.00
2018-12-29T03:15:11.385Z,4.80
2018-12-29T03:17:38.774Z,4.50
2018-12-29T03:20:06.503Z,4.33
2018-12-29T03:22:33.897Z,5.40
2018-12-29T03:25:01.285Z,4.80
2018-12-29T03:27:28.991Z,6.40
2018-12-29T03:29:56.385Z,5.50
2018-12-29T03:32:23.775Z,6.20
2018-12-29T03:34:51.300Z,5.20
2018-12-29T03:37:18.699Z,5.70
2018-12-29T03:39:46.106Z,4.90
2018-12-29T03:42:13.632Z,6.20
2018-12-29T03:44:41.328Z,6.80
2018-12-29T03:47:08.729Z,5.87
2018-12-29T03:49:36.135Z,4.83
2018-12-29T03:52:03.544Z,5.10
2018-12-29T03:54:30.948Z,4.57
2018-12-29T03:56:58.403Z,5.60
2018-12-29T03:59:25.796Z,5.17
2018-12-29T04:01:53.199Z,7.63
2018-12-29T04:04:20.727Z,5.80
2018-12-29T04:06:48.145Z,5.47
2018-12-29T04:09:35.293Z,5.10
2018-12-29T04:12:24.012Z,5.93
2018-12-29T04:14:51.988Z,7.30
2018-12-29T04:17:21.683Z,7.20
2018-12-29T04:19:50.220Z,6.27
2018-12-29T04:22:18.290Z,4.60
2018-12-29T04:24:45.695Z,4.63
2018-12-29T04:27:13.138Z,4.70
2018-12-29T04:29:40.818Z,4.67
2018-12-29T04:32:08.194Z,4.97
2018-12-29T04:34:35.587Z,4.93
2018-12-29T04:37:03.026Z,4.70
2018-12-29T04:39:30.427Z,4.50
2018-12-29T04:41:57.826Z,5.90
2018-12-29T04:44:25.251Z,5.77
2018-12-29T04:46:52.694Z,6.27
2018-12-29T04:49:20.097Z,5.80
2018-12-29T04:51:47.937Z,6.20
2018-12-29T04:54:15.345Z,5.17
2018-12-29T04:56:42.751Z,4.57
2018-12-29T04:59:10.432Z,5.80
2018-12-29T05:01:37.842Z,6.07
2018-12-29T05:04:24.831Z,5.97
2018-12-29T05:06:52.299Z,5.40
2018-12-29T05:09:19.692Z,5.27
2018-12-29T05:11:47.135Z,6.33
2018-12-29T05:14:14.534Z,5.53
2018-12-29T05:16:42.138Z,6.37
2018-12-29T05:19:09.576Z,6.90
2018-12-29T05:21:37.157Z,5.20
2018-12-29T05:24:04.542Z,4.67
2018-12-29T05:26:31.974Z,4.07
2018-12-29T05:28:59.354Z,4.20
2018-12-29T05:31:26.766Z,4.67
2018-12-29T05:33:54.297Z,4.20
2018-12-29T05:36:21.694Z,4.20
2018-12-29T05:38:49.083Z,4.43
2018-12-29T05:41:16.503Z,5.07
2018-12-29T05:43:43.886Z,5.77
2018-12-29T05:46:11.277Z,5.50
2018-12-29T05:48:38.727Z,6.30
2018-12-29T05:51:06.114Z,5.30
2018-12-29T05:53:33.498Z,4.60
2018-12-29T05:56:01.403Z,5.40
2018-12-29T05:58:28.795Z,5.20
2018-12-29T06:00:56.178Z,6.53
2018-12-29T06:03:23.700Z,6.53
2018-12-29T06:05:51.207Z,5.40
2018-12-29T06:08:18.706Z,5.17
2018-12-29T06:10:46.135Z,6.03
2018-12-29T06:13:13.514Z,6.47
2018-12-29T06:15:40.810Z,6.37
2018-12-29T06:18:08.234Z,6.90
2018-12-29T06:20:35.643Z,6.37
2018-12-29T06:23:03.033Z,6.80
2018-12-29T06:25:30.479Z,5.90
2018-12-29T06:27:57.858Z,5.00
2018-12-29T06:30:25.234Z,5.40
2018-12-29T06:32:52.706Z,5.20
2018-12-29T06:35:20.094Z,5.90
2018-12-29T06:37:47.489Z,5.03
2018-12-29T06:40:15.029Z,6.50
2018-12-29T06:42:42.406Z,5.53
2018-12-29T06:45:09.794Z,4.90
2018-12-29T06:47:37.498Z,5.30
2018-12-29T06:50:04.946Z,5.90
2018-12-29T06:52:32.406Z,6.60
2018-12-29T06:54:59.806Z,6.70
2018-12-29T06:57:27.198Z,5.20
2018-12-29T06:59:54.585Z,6.13
2018-12-29T07:02:22.075Z,7.90
2018-12-29T07:04:49.453Z,6.60
2018-12-29T07:07:16.941Z,7.30
2018-12-29T07:09:44.458Z,5.77
2018-12-29T07:12:11.842Z,6.20
2018-12-29T07:14:39.226Z,5.90
2018-12-29T07:17:06.661Z,5.10
2018-12-29T07:19:34.048Z,5.10
2018-12-29T07:22:01.419Z,6.20
2018-12-29T07:24:28.922Z,6.50
2018-12-29T07:26:56.311Z,6.85
2018-12-29T07:29:23.698Z,8.67
2018-12-29T07:31:51.399Z,8.67
2018-12-29T07:34:18.783Z,8.80
2018-12-29T07:36:46.174Z,10.30
2018-12-29T07:39:13.744Z,9.90
2018-12-29T07:41:41.122Z,11.10
2018-12-29T07:44:08.523Z,10.87
2018-12-29T07:46:36.293Z,10.63
2018-12-29T07:49:03.675Z,10.70
2018-12-29T07:51:31.074Z,10.33
2018-12-29T07:53:58.502Z,13.10
2018-12-29T07:56:25.883Z,15.20
2018-12-29T07:58:53.278Z,16.83
2018-12-29T08:01:20.786Z,17.30
2018-12-29T08:03:48.178Z,15.80
2018-12-29T08:06:15.721Z,15.70
2018-12-29T08:08:43.307Z,16.60
2018-12-29T08:11:10.686Z,21.80
2018-12-29T08:13:38.086Z,18.10
2018-12-29T08:16:05.541Z,19.07
2018-12-29T08:18:32.926Z,21.03
2018-12-29T08:21:00.313Z,18.47
2018-12-29T08:23:27.804Z,21.20
2018-12-29T08:25:55.198Z,18.60
2018-12-29T08:28:22.604Z,17.57
2018-12-29T08:30:50.074Z,19.00
2018-12-29T08:33:17.481Z,18.97
2018-12-29T08:35:44.877Z,17.97
2018-12-29T08:38:12.316Z,15.40
2018-12-29T08:40:39.700Z,16.50
2018-12-29T08:43:07.081Z,15.00
2018-12-29T08:45:34.639Z,14.93
2018-12-29T08:48:02.074Z,19.03
2018-12-29T08:50:29.476Z,17.63
2018-12-29T08:52:56.911Z,19.50
2018-12-29T08:55:24.297Z,19.13
2018-12-29T08:57:51.698Z,17.97
2018-12-29T09:00:19.041Z,15.80
2018-12-29T09:02:46.711Z,16.40
2018-12-29T09:05:14.100Z,18.93
2018-12-29T09:07:41.831Z,21.17
2018-12-29T09:10:09.515Z,19.80
2018-12-29T09:12:36.834Z,21.80
2018-12-29T09:15:04.574Z,18.57
2018-12-29T09:17:31.978Z,20.10
2018-12-29T09:19:59.382Z,22.75
2018-12-29T09:22:26.866Z,28.10
2018-12-29T09:24:56.438Z,24.33
2018-12-29T09:27:23.826Z,39.90
2018-12-29T09:29:51.283Z,23.10
2018-12-29T09:32:18.699Z,23.80
2018-12-29T09:34:46.083Z,30.23
2018-12-29T09:37:13.517Z,25.63
2018-12-29T09:39:40.911Z,23.23
2018-12-29T09:42:08.305Z,23.03
2018-12-29T09:44:36.418Z,25.20
2018-12-29T09:47:03.854Z,23.23
2018-12-29T09:49:31.257Z,26.20
2018-12-29T09:51:58.766Z,29.33
2018-12-29T09:54:26.170Z,24.93
2018-12-29T09:56:53.553Z,31.90
2018-12-29T09:59:21.076Z,28.10
2018-12-29T10:01:48.490Z,28.00
2018-12-29T10:04:15.913Z,27.53
2018-12-29T10:06:43.351Z,27.77
2018-12-29T10:09:10.886Z,28.97
2018-12-29T10:11:38.263Z,28.77
2018-12-29T10:14:05.823Z,27.10
2018-12-29T10:16:33.223Z,25.23
2018-12-29T10:19:00.630Z,28.07
2018-12-29T10:21:28.148Z,27.07
2018-12-29T10:23:55.538Z,25.90
2018-12-29T10:26:22.940Z,25.47
2018-12-29T10:28:50.535Z,30.60
2018-12-29T10:31:17.973Z,30.50
2018-12-29T10:33:45.689Z,28.33
2018-12-29T10:36:13.157Z,28.00
2018-12-29T10:38:40.623Z,25.20
2018-12-29T10:41:08.046Z,24.57
2018-12-29T10:43:35.833Z,25.27
2018-12-29T10:46:03.297Z,28.63
2018-12-29T10:48:30.718Z,27.20
2018-12-29T10:50:58.251Z,25.23
2018-12-29T10:53:25.710Z,26.43
2018-12-29T10:55:53.108Z,25.60
2018-12-29T10:58:20.911Z,27.27
2018-12-29T11:00:48.315Z,27.10
2018-12-29T11:03:15.735Z,29.00
2018-12-29T11:05:43.182Z,28.53
2018-12-29T11:08:10.675Z,26.63
2018-12-29T11:10:38.196Z,26.57
2018-12-29T11:13:05.629Z,25.93
2018-12-29T11:15:33.047Z,26.10
2018-12-29T11:18:00.355Z,25.43
2018-12-29T11:20:27.807Z,23.70
2018-12-29T11:22:55.203Z,25.37
2018-12-29T11:25:22.595Z,24.10
2018-12-29T11:27:50.038Z,26.73
2018-12-29T11:30:17.443Z,24.90
2018-12-29T11:32:44.841Z,24.77
2018-12-29T11:35:12.326Z,24.27
2018-12-29T11:37:39.716Z,24.03
2018-12-29T11:40:07.142Z,24.90
2018-12-29T11:42:34.569Z,23.47
2018-12-29T11:45:01.958Z,23.20
2018-12-29T11:47:30.782Z,23.27
2018-12-29T11:50:01.782Z,28.98
2018-12-29T11:52:31.485Z,21.90
2018-12-29T11:55:07.080Z,23.77
2018-12-29T11:57:46.301Z,22.03
2018-12-29T12:00:32.892Z,26.47
2018-12-29T12:03:04.079Z,25.97
2018-12-29T12:05:50.769Z,23.63
2018-12-29T12:08:24.915Z,24.20
2018-12-29T12:11:03.019Z,22.37
2018-12-29T12:13:42.726Z,24.03
2018-12-29T12:16:17.253Z,24.13
2018-12-29T12:18:58.052Z,24.17
2018-12-29T12:21:26.582Z,25.30
2018-12-29T12:24:15.515Z,23.60
2018-12-29T12:26:49.583Z,25.30
2018-12-29T12:29:27.512Z,25.47
2018-12-29T12:32:05.189Z,25.90
2018-12-29T12:34:40.924Z,26.77
2018-12-29T12:37:18.817Z,25.47
2018-12-29T12:39:53.033Z,27.27
2018-12-29T12:42:30.916Z,27.00
2018-12-29T12:44:58.324Z,25.60
2018-12-29T12:47:25.756Z,25.60
2018-12-29T12:49:54.390Z,27.53
2018-12-29T12:52:22.139Z,28.73
2018-12-29T12:54:49.553Z,23.90
2018-12-29T12:57:17.356Z,21.73
2018-12-29T12:59:45.152Z,24.07
2018-12-29T13:02:12.551Z,26.20
2018-12-29T13:04:40.275Z,26.80
2018-12-29T13:07:07.743Z,27.03
2018-12-29T13:09:35.293Z,27.50
2018-12-29T13:12:02.872Z,26.00
2018-12-29T13:14:30.334Z,23.47
2018-12-29T13:16:59.631Z,24.33
2018-12-29T13:19:28.616Z,26.17
2018-12-29T13:21:56.277Z,22.37
2018-12-29T13:24:23.694Z,22.60
2018-12-29T13:26:51.139Z,21.37
2018-12-29T13:29:18.758Z,21.93
2018-12-29T13:31:46.173Z,22.80
2018-12-29T13:34:13.567Z,25.03
2018-12-29T13:36:41.027Z,23.80
2018-12-29T13:39:08.453Z,22.97
2018-12-29T13:41:35.899Z,25.40
2018-12-29T13:44:03.751Z,24.23
2018-12-29T13:46:31.195Z,21.43
2018-12-29T13:49:01.389Z,25.23
2018-12-29T13:51:29.083Z,25.40
2018-12-29T13:53:56.557Z,27.53
2018-12-29T13:56:24.390Z,29.07
2018-12-29T13:58:51.896Z,25.50
2018-12-29T14:01:19.320Z,25.50
2018-12-29T14:03:47.024Z,20.77
2018-12-29T14:06:14.483Z,18.80
2018-12-29T14:08:46.256Z,20.10
2018-12-29T14:11:13.671Z,22.13
2018-12-29T14:13:41.230Z,22.93
2018-12-29T14:16:08.648Z,24.90
2018-12-29T14:18:36.047Z,28.10
2018-12-29T14:21:03.876Z,26.53
2018-12-29T14:23:31.704Z,25.80
2018-12-29T14:25:59.086Z,23.03
2018-12-29T14:28:26.570Z,25.40
2018-12-29T14:30:53.999Z,23.90
2018-12-29T14:33:21.400Z,26.23
2018-12-29T14:35:48.951Z,24.30
2018-12-29T14:38:16.355Z,21.30
2018-12-29T14:40:43.661Z,22.43
2018-12-29T14:43:11.198Z,22.77
2018-12-29T14:45:38.773Z,25.37
2018-12-29T14:48:06.875Z,25.07
2018-12-29T14:50:34.779Z,25.30
2018-12-29T14:53:08.624Z,26.90
2018-12-29T14:55:36.526Z,22.67
2018-12-29T14:58:04.165Z,22.00
2018-12-29T15:00:31.654Z,19.77
2018-12-29T15:02:59.229Z,18.83
2018-12-29T15:05:26.878Z,23.87
2018-12-29T15:07:54.646Z,23.77
2018-12-29T15:10:22.603Z,19.73
2018-12-29T15:12:50.355Z,19.00
2018-12-29T15:15:17.937Z,19.70
2018-12-29T15:17:45.545Z,22.30
2018-12-29T15:20:13.628Z,29.27
2018-12-29T15:22:41.038Z,28.87
2018-12-29T15:25:08.649Z,25.70
2018-12-29T15:27:36.937Z,25.77
2018-12-29T15:30:06.867Z,30.77
2018-12-29T15:32:34.398Z,28.97
2018-12-29T15:35:04.098Z,24.60
2018-12-29T15:37:31.699Z,21.63
2018-12-29T15:39:59.270Z,19.87
2018-12-29T15:42:27.234Z,25.20
2018-12-29T15:44:54.675Z,23.70
2018-12-29T15:47:22.338Z,25.67
2018-12-29T15:49:50.360Z,27.07
2018-12-29T15:52:17.915Z,20.83
2018-12-29T15:54:45.697Z,25.07
2018-12-29T15:57:13.369Z,19.77
2018-12-29T15:59:41.264Z,23.20
2018-12-29T16:02:08.871Z,24.77
2018-12-29T16:04:36.466Z,21.47
2018-12-29T16:07:04.026Z,22.50
2018-12-29T16:09:32.178Z,21.70
2018-12-29T16:12:00.424Z,26.87
2018-12-29T16:14:35.213Z,26.93
2018-12-29T16:16:57.275Z,22.43
2018-12-29T16:19:24.905Z,22.53
2018-12-29T16:21:52.293Z,23.17
2018-12-29T16:24:21.823Z,22.80
2018-12-29T16:26:49.487Z,22.33
2018-12-29T16:29:16.897Z,19.80
2018-12-29T16:31:44.307Z,18.17
2018-12-29T16:34:12.374Z,20.80
2018-12-29T16:36:39.835Z,21.33
2018-12-29T16:39:07.339Z,19.13
2018-12-29T16:41:34.789Z,19.40
2018-12-29T16:44:02.193Z,18.90
2018-12-29T16:46:29.605Z,22.77
2018-12-29T16:48:57.028Z,26.83
2018-12-29T16:51:24.427Z,21.97
2018-12-29T16:53:51.827Z,18.80
2018-12-29T16:56:19.439Z,19.80
2018-12-29T16:58:46.838Z,16.57
2018-12-29T17:01:14.235Z,18.20
2018-12-29T17:03:42.366Z,17.70
2018-12-29T17:06:09.780Z,23.47
2018-12-29T17:08:37.301Z,25.00
2018-12-29T17:11:05.219Z,26.90
2018-12-29T17:13:33.031Z,27.20
2018-12-29T17:16:00.679Z,23.60
2018-12-29T17:18:28.140Z,18.77
2018-12-29T17:20:55.555Z,17.73
2018-12-29T17:23:22.940Z,19.60
2018-12-29T17:25:50.478Z,17.10
2018-12-29T17:28:17.788Z,19.23
2018-12-29T17:30:45.182Z,21.47
2018-12-29T17:33:12.632Z,23.80
2018-12-29T17:35:40.015Z,21.27
2018-12-29T17:38:07.724Z,23.13
2018-12-29T17:40:35.155Z,30.80
2018-12-29T17:43:02.591Z,27.90
2018-12-29T17:45:29.987Z,24.30
2018-12-29T17:47:57.523Z,27.73
2018-12-29T17:50:25.321Z,21.10
2018-12-29T17:52:52.773Z,21.13
2018-12-29T17:55:20.251Z,24.17
2018-12-29T17:57:48.051Z,21.20
2018-12-29T18:00:15.451Z,23.10
2018-12-29T18:02:43.271Z,22.90
2018-12-29T18:05:10.655Z,28.10
2018-12-29T18:07:38.078Z,22.40
2018-12-29T18:10:06.101Z,20.10
2018-12-29T18:12:34.200Z,20.10
2018-12-29T18:15:01.617Z,19.17
2018-12-29T18:17:29.212Z,19.97
2018-12-29T18:19:56.661Z,18.60
2018-12-29T18:22:24.092Z,18.10
2018-12-29T18:24:51.887Z,18.47
2018-12-29T18:27:19.301Z,21.27
2018-12-29T18:29:47.587Z,19.13
2018-12-29T18:32:15.376Z,20.53
2018-12-29T18:34:42.779Z,20.70
2018-12-29T18:37:10.195Z,16.90
2018-12-29T18:39:37.965Z,16.40
2018-12-29T18:42:05.355Z,16.37
2018-12-29T18:44:32.771Z,15.80
2018-12-29T18:47:00.336Z,14.60
2018-12-29T18:49:28.110Z,14.37
2018-12-29T18:51:55.470Z,17.30
2018-12-29T18:54:22.998Z,15.50
2018-12-29T18:56:50.386Z,12.57
2018-12-29T18:59:17.778Z,14.80
2018-12-29T19:01:45.535Z,18.17
2018-12-29T19:04:12.971Z,14.87
2018-12-29T19:06:40.416Z,13.97
2018-12-29T19:09:07.870Z,16.60
2018-12-29T19:11:35.629Z,14.10
2018-12-29T19:14:03.407Z,14.83
2018-12-29T19:16:30.884Z,13.63
2018-12-29T19:18:58.346Z,12.70
2018-12-29T19:21:25.767Z,14.17
2018-12-29T19:23:53.639Z,13.73
2018-12-29T19:26:21.319Z,14.10
2018-12-29T19:28:49.008Z,15.60
2018-12-29T19:31:16.758Z,18.47
2018-12-29T19:33:44.143Z,25.70
2018-12-29T19:36:11.549Z,23.67
2018-12-29T19:38:39.007Z,18.77
2018-12-29T19:41:06.709Z,25.33
2018-12-29T19:43:34.519Z,22.00
2018-12-29T19:46:02.407Z,23.20
2018-12-29T19:48:29.814Z,19.83
2018-12-29T19:50:57.226Z,23.03
2018-12-29T19:53:24.991Z,26.27
2018-12-29T19:55:52.405Z,20.40
2018-12-29T19:58:19.854Z,18.43
2018-12-29T20:00:47.332Z,17.70
2018-12-29T20:03:15.472Z,15.57
2018-12-29T20:05:43.313Z,17.50
2018-12-29T20:08:10.754Z,14.80
2018-12-29T20:10:38.397Z,16.77
2018-12-29T20:13:06.234Z,16.20
2018-12-29T20:15:33.698Z,12.33
2018-12-29T20:18:01.095Z,14.47
2018-12-29T20:20:28.528Z,14.60
2018-12-29T20:22:56.348Z,12.67
2018-12-29T20:25:24.335Z,14.07
2018-12-29T20:27:51.919Z,11.47
2018-12-29T20:30:19.704Z,17.03
2018-12-29T20:32:47.333Z,17.43
2018-12-29T20:35:15.268Z,17.80
2018-12-29T20:37:43.362Z,16.00
2018-12-29T20:40:11.831Z,13.27
2018-12-29T20:42:40.831Z,15.47
2018-12-29T20:45:08.498Z,16.77
2018-12-29T20:47:35.918Z,16.07
2018-12-29T20:50:09.582Z,14.30
2018-12-29T20:52:33.553Z,16.37
2018-12-29T20:55:01.203Z,17.90
2018-12-29T20:57:28.779Z,13.70
2018-12-29T20:59:56.383Z,16.07
2018-12-29T21:02:23.961Z,13.70
2018-12-29T21:04:51.483Z,16.23
2018-12-29T21:07:18.935Z,14.10
2018-12-29T21:09:46.731Z,14.13
2018-12-29T21:12:15.147Z,17.30
2018-12-29T21:14:42.887Z,22.00
2018-12-29T21:17:10.445Z,18.10
2018-12-29T21:19:38.010Z,15.80
2018-12-29T21:22:07.407Z,15.20
2018-12-29T21:24:34.986Z,15.53
2018-12-29T21:27:02.555Z,14.20
2018-12-29T21:29:30.189Z,13.30
2018-12-29T21:31:57.735Z,10.60
2018-12-29T21:34:25.324Z,11.70
2018-12-29T21:36:52.924Z,11.23
2018-12-29T21:39:20.500Z,12.33
2018-12-29T21:41:48.088Z,13.40
2018-12-29T21:44:15.587Z,12.90
2018-12-29T21:46:43.162Z,12.73
2018-12-29T21:49:10.547Z,12.20
2018-12-29T21:51:37.979Z,11.97
2018-12-29T21:54:05.395Z,13.73
2018-12-29T21:56:32.790Z,18.57
2018-12-29T21:59:01.657Z,16.07
2018-12-29T22:01:29.058Z,12.27
2018-12-29T22:03:56.471Z,10.93
2018-12-29T22:06:23.934Z,15.43
2018-12-29T22:08:51.551Z,14.03
2018-12-29T22:11:19.288Z,15.00
2018-12-29T22:13:47.754Z,13.90
2018-12-29T22:16:15.149Z,13.07
2018-12-29T22:18:42.466Z,17.10
2018-12-29T22:21:09.997Z,15.07
2018-12-29T22:23:38.789Z,18.07
2018-12-29T22:26:06.198Z,14.83
2018-12-29T22:28:33.856Z,12.10
2018-12-29T22:31:02.446Z,12.70
2018-12-29T22:33:29.846Z,13.53
2018-12-29T22:35:57.308Z,12.40
2018-12-29T22:38:24.697Z,13.40
2018-12-29T22:40:52.094Z,14.90
2018-12-29T22:43:19.663Z,13.63
2018-12-29T22:45:47.087Z,16.80
2018-12-29T22:48:14.487Z,16.70
2018-12-29T22:50:42.014Z,15.23
2018-12-29T22:53:09.435Z,16.00
2018-12-29T22:55:36.870Z,13.10
2018-12-29T22:58:08.613Z,10.20
2018-12-29T23:00:39.038Z,12.70
2018-12-29T23:03:06.789Z,13.07
2018-12-29T23:05:34.203Z,14.20
2018-12-29T23:08:01.626Z,14.93
2018-12-29T23:10:29.212Z,11.60
2018-12-29T23:12:57.102Z,12.43
2018-12-29T23:15:24.799Z,11.77
2018-12-29T23:17:52.270Z,13.30
2018-12-29T23:20:19.667Z,13.70
2018-12-29T23:22:47.063Z,13.37
2018-12-29T23:25:14.523Z,14.10
2018-12-29T23:27:42.226Z,18.13
2018-12-29T23:30:09.626Z,14.30
2018-12-29T23:32:37.693Z,13.03
2018-12-29T23:35:05.114Z,11.80
2018-12-29T23:37:32.522Z,9.87
2018-12-29T23:40:00.590Z,10.63
2018-12-29T23:42:27.997Z,11.23
2018-12-29T23:44:57.214Z,12.90
2018-12-29T23:47:25.258Z,13.17
2018-12-29T23:49:52.651Z,13.70
2018-12-29T23:52:20.060Z,12.90
2018-12-29T23:54:47.498Z,11.17
2018-12-29T23:57:15.105Z,13.77
2018-12-29T23:59:42.498Z,12.40
